Terminal Aerodrome Forecast
Issued by NWS

Home | Current Version | Previous Version | Text Only | Print | Product List | Glossary On
Versions: 1 2 3 4 5 6 7 8 9 10 11 12
000
FTUS42 KTAE 191700
TAFECP
TAF
KECP 191724Z 1918/2018 12005KT 6SM -RA BR OVC250
     FM192000 12008KT P6SM SCT040 BKN250
     FM201400 08012KT P6SM SCT025=

USA.gov is the U.S. government's official web portal to all federal, state and local government web resources and services.